createdAt,value
2023-01-23T00:02:12.578Z,-0.60
2023-01-23T00:07:14.315Z,-0.60
2023-01-23T00:12:16.033Z,-0.60
2023-01-23T00:17:17.733Z,-0.60
2023-01-23T00:22:19.460Z,-0.80
2023-01-23T00:27:21.265Z,-1.00
2023-01-23T00:32:23.491Z,-1.10
2023-01-23T00:37:25.423Z,-1.20
2023-01-23T00:42:27.150Z,-1.30
2023-01-23T00:47:28.888Z,-1.40
2023-01-23T00:52:30.742Z,-1.40
2023-01-23T00:57:32.534Z,-1.30
2023-01-23T01:02:34.297Z,-1.20
2023-01-23T01:07:36.145Z,-1.30
2023-01-23T01:12:38.566Z,-1.20
2023-01-23T01:17:40.866Z,-1.20
2023-01-23T01:22:42.593Z,-1.20
2023-01-23T01:27:44.456Z,-1.10
2023-01-23T01:32:46.387Z,-1.10
2023-01-23T01:37:49.010Z,-1.10
2023-01-23T01:42:56.562Z,-1.10
2023-01-23T01:47:58.306Z,-1.20
2023-01-23T01:53:00.243Z,-1.10
2023-01-23T01:58:02.188Z,-1.20
2023-01-23T02:03:03.988Z,-1.20
2023-01-23T02:08:26.397Z,-1.20
2023-01-23T02:13:38.757Z,-1.20
2023-01-23T02:18:45.145Z,-1.30
2023-01-23T02:24:04.100Z,-1.50
2023-01-23T02:29:07.814Z,-1.70
2023-01-23T02:34:19.123Z,-1.70
2023-01-23T02:39:21.249Z,-1.70
2023-01-23T02:44:31.797Z,-1.70
2023-01-23T02:49:36.838Z,-1.70
2023-01-23T02:54:40.712Z,-1.80
2023-01-23T03:00:00.891Z,-1.90
2023-01-23T03:05:03.405Z,-2.00
2023-01-23T03:10:07.673Z,-2.00
2023-01-23T03:15:10.193Z,-2.10
2023-01-23T03:20:12.430Z,-2.20
2023-01-23T03:25:17.051Z,-2.20
2023-01-23T03:30:22.007Z,-2.30
2023-01-23T03:35:25.868Z,-2.40
2023-01-23T03:40:48.477Z,-2.40
2023-01-23T03:45:51.613Z,-2.50
2023-01-23T03:50:53.636Z,-2.40
2023-01-23T03:55:56.729Z,-2.30
2023-01-23T04:01:03.379Z,-2.30
2023-01-23T04:06:09.483Z,-2.20
2023-01-23T04:11:13.020Z,-2.10
2023-01-23T04:16:16.315Z,-2.10
2023-01-23T04:21:18.621Z,-2.20
2023-01-23T04:26:20.822Z,-2.20
2023-01-23T04:31:22.809Z,-2.20
2023-01-23T04:36:25.338Z,-2.40
2023-01-23T04:41:30.373Z,-2.50
2023-01-23T04:46:39.372Z,-2.60
2023-01-23T04:51:48.139Z,-2.70
2023-01-23T04:56:50.221Z,-2.70
2023-01-23T05:01:54.142Z,-2.70
2023-01-23T05:06:56.825Z,-2.80
2023-01-23T05:11:58.961Z,-2.90
2023-01-23T05:17:02.497Z,-3.00
2023-01-23T05:22:08.534Z,-3.00
2023-01-23T05:27:10.795Z,-3.10
2023-01-23T05:32:15.457Z,-3.10
2023-01-23T05:37:28.337Z,-3.10
2023-01-23T05:42:35.420Z,-3.10
2023-01-23T05:48:00.095Z,-3.10
2023-01-23T05:53:02.238Z,-3.10
2023-01-23T05:58:04.341Z,-3.30
2023-01-23T06:03:35.426Z,-3.30
2023-01-23T06:09:03.719Z,-3.30
2023-01-23T06:14:06.987Z,-3.30
2023-01-23T06:19:10.082Z,-3.30
2023-01-23T06:24:12.802Z,-3.30
2023-01-23T06:29:14.855Z,-3.30
2023-01-23T06:34:16.933Z,-3.20
2023-01-23T06:39:30.210Z,-3.20
2023-01-23T06:44:32.651Z,-3.30
2023-01-23T06:49:35.135Z,-3.40
2023-01-23T06:54:37.129Z,-3.30
2023-01-23T06:59:41.174Z,-3.30
2023-01-23T07:04:45.311Z,-3.30
2023-01-23T07:09:47.634Z,-3.20
2023-01-23T07:15:00.161Z,-3.10
2023-01-23T07:20:10.669Z,-3.00
2023-01-23T07:25:20.634Z,-2.90
2023-01-23T07:30:22.642Z,-2.70
2023-01-23T07:35:25.353Z,-2.60
2023-01-23T07:40:27.096Z,-2.40
2023-01-23T07:45:28.830Z,-2.30
2023-01-23T07:50:30.644Z,-2.20
2023-01-23T07:55:32.530Z,-2.20
2023-01-23T08:00:34.524Z,-2.10
2023-01-23T08:05:36.337Z,-2.00
2023-01-23T08:10:38.072Z,-1.90
2023-01-23T08:15:40.124Z,-1.80
2023-01-23T08:20:41.896Z,-1.60
2023-01-23T08:25:43.660Z,-1.60
2023-01-23T08:30:45.519Z,-1.60
2023-01-23T08:35:55.746Z,-1.50
2023-01-23T08:41:00.886Z,-1.50
2023-01-23T08:46:02.763Z,-1.40
2023-01-23T08:51:11.396Z,-1.40
2023-01-23T08:56:19.277Z,-1.30
2023-01-23T09:01:23.776Z,-1.20
2023-01-23T09:06:25.641Z,-1.10
2023-01-23T09:11:27.408Z,-1.00
2023-01-23T09:16:29.184Z,-0.90
2023-01-23T09:21:31.125Z,-0.80
2023-01-23T09:26:32.927Z,-0.70
2023-01-23T09:31:34.746Z,-0.60
2023-01-23T09:36:42.904Z,-0.50
2023-01-23T09:41:47.139Z,-0.40
2023-01-23T09:46:55.918Z,-0.20
2023-01-23T09:52:06.241Z,-0.10
2023-01-23T09:57:34.545Z,0.00
2023-01-23T10:02:36.375Z,0.10
2023-01-23T10:07:42.425Z,0.20
2023-01-23T10:12:49.303Z,0.30
2023-01-23T10:18:09.129Z,0.40
2023-01-23T10:23:35.902Z,0.50
2023-01-23T10:28:39.420Z,0.70
2023-01-23T10:34:06.863Z,0.70
2023-01-23T10:39:20.354Z,0.80
2023-01-23T10:44:23.029Z,1.00
2023-01-23T10:49:31.236Z,1.10
2023-01-23T10:54:45.957Z,1.20
2023-01-23T11:00:26.039Z,1.30
2023-01-23T11:05:52.432Z,1.40
2023-01-23T11:11:17.447Z,1.40
2023-01-23T11:16:23.511Z,1.50
2023-01-23T11:21:33.102Z,1.50
2023-01-23T11:26:36.287Z,1.70
2023-01-23T11:31:38.346Z,1.70
2023-01-23T11:36:48.805Z,1.80
2023-01-23T11:41:51.163Z,1.80
2023-01-23T11:47:19.370Z,2.00
2023-01-23T11:52:36.806Z,2.10
2023-01-23T11:57:51.996Z,2.10
2023-01-23T12:03:05.744Z,2.20
2023-01-23T12:08:28.622Z,2.40
2023-01-23T12:13:55.946Z,2.50
2023-01-23T12:19:10.985Z,2.70
2023-01-23T12:24:31.887Z,2.70
2023-01-23T12:30:10.875Z,2.80
2023-01-23T12:36:07.053Z,3.10
2023-01-23T12:41:14.811Z,3.50
2023-01-23T12:46:26.590Z,3.80
2023-01-23T12:51:36.914Z,4.00
2023-01-23T12:56:40.062Z,4.00
2023-01-23T13:02:09.609Z,3.90
2023-01-23T13:07:35.465Z,3.80
2023-01-23T13:12:37.703Z,3.70
2023-01-23T13:17:44.281Z,3.70
2023-01-23T13:22:46.051Z,3.60
2023-01-23T13:27:59.918Z,3.60
2023-01-23T13:33:14.680Z,3.60
2023-01-23T13:38:22.596Z,3.50
2023-01-23T13:43:49.286Z,3.50
2023-01-23T14:21:41.057Z,3.10
2023-01-23T14:26:50.319Z,3.00
2023-01-23T14:31:52.865Z,2.80
2023-01-23T14:37:06.823Z,2.80
2023-01-23T14:42:16.533Z,2.80
2023-01-23T14:47:24.532Z,2.70
2023-01-23T14:52:29.419Z,2.60
2023-01-23T14:57:32.098Z,2.50
2023-01-23T15:02:35.823Z,2.40
2023-01-23T15:07:59.016Z,2.40
2023-01-23T15:13:05.162Z,2.30
2023-01-23T15:18:22.721Z,2.30
2023-01-23T15:23:33.503Z,2.20
2023-01-23T15:28:50.698Z,2.20
2023-01-23T15:33:53.403Z,2.10
2023-01-23T15:38:57.742Z,2.00
2023-01-23T15:43:59.450Z,2.10
2023-01-23T15:49:01.431Z,2.00
2023-01-23T15:54:05.134Z,2.00
2023-01-23T15:59:16.444Z,1.90
2023-01-23T16:04:18.419Z,1.90
2023-01-23T16:09:26.079Z,1.90
2023-01-23T16:14:28.611Z,1.80
2023-01-23T16:19:30.349Z,1.80
2023-01-23T16:24:37.475Z,1.80
2023-01-23T16:29:39.327Z,1.80
2023-01-23T16:34:41.126Z,1.70
2023-01-23T16:39:44.353Z,1.80
2023-01-23T16:44:46.117Z,1.80
2023-01-23T16:49:53.033Z,1.80
2023-01-23T16:54:55.791Z,1.70
2023-01-23T16:59:58.567Z,1.70
2023-01-23T17:05:00.300Z,1.60
2023-01-23T17:10:02.036Z,1.50
2023-01-23T17:15:04.233Z,1.40
2023-01-23T17:20:06.814Z,1.40
2023-01-23T17:25:21.141Z,1.30
2023-01-23T17:30:25.210Z,1.30
2023-01-23T17:35:34.747Z,1.40
2023-01-23T17:40:36.804Z,1.50
2023-01-23T17:45:39.971Z,1.60
2023-01-23T17:50:46.377Z,1.50
2023-01-23T17:55:52.598Z,1.40
2023-01-23T18:00:56.011Z,1.30
2023-01-23T18:05:57.898Z,1.10
2023-01-23T18:11:01.053Z,1.10
2023-01-23T18:16:11.162Z,1.10
2023-01-23T18:21:15.090Z,1.00
2023-01-23T18:26:43.350Z,1.00
2023-01-23T18:32:23.892Z,1.00
2023-01-23T18:37:47.373Z,1.00
2023-01-23T18:43:07.500Z,0.90
2023-01-23T18:48:25.044Z,1.00
2023-01-23T18:53:51.699Z,0.90
2023-01-23T18:59:24.363Z,0.90
2023-01-23T19:05:08.001Z,0.90
2023-01-23T19:10:15.417Z,0.90
2023-01-23T19:15:29.450Z,1.00
2023-01-23T19:20:44.648Z,0.90
2023-01-23T19:25:47.977Z,1.00
2023-01-23T19:30:50.083Z,0.90
2023-01-23T19:35:54.774Z,1.00
2023-01-23T19:40:56.553Z,0.90
2023-01-23T19:45:59.401Z,0.90
2023-01-23T19:51:01.161Z,1.00
2023-01-23T19:56:02.915Z,0.90
2023-01-23T20:01:24.982Z,0.90
2023-01-23T20:06:27.726Z,1.00
2023-01-23T20:11:29.489Z,0.90
2023-01-23T20:16:31.435Z,1.00
2023-01-23T20:21:33.209Z,1.00
2023-01-23T20:26:35.457Z,1.10
2023-01-23T20:31:37.303Z,1.10
2023-01-23T20:36:39.232Z,1.10
2023-01-23T20:41:41.226Z,1.10
2023-01-23T20:46:44.131Z,1.20
2023-01-23T20:51:45.853Z,1.20
2023-01-23T20:56:47.573Z,1.20
2023-01-23T21:02:08.506Z,1.30
2023-01-23T21:07:10.235Z,1.40
2023-01-23T21:12:12.626Z,1.40
2023-01-23T21:17:14.369Z,1.30
2023-01-23T21:22:16.215Z,1.40
2023-01-23T21:27:19.868Z,1.30
2023-01-23T21:32:22.741Z,1.40
2023-01-23T21:37:24.592Z,1.40
2023-01-23T21:42:26.913Z,1.30
2023-01-23T21:47:28.754Z,1.30
2023-01-23T21:52:31.029Z,1.20
2023-01-23T21:57:32.829Z,1.10
2023-01-23T22:02:34.665Z,1.10
2023-01-23T22:07:37.653Z,0.90
2023-01-23T22:12:39.414Z,0.80
2023-01-23T22:17:41.222Z,0.80
2023-01-23T22:22:42.929Z,0.80
2023-01-23T22:27:44.733Z,0.60
2023-01-23T22:32:46.612Z,0.60
2023-01-23T22:37:48.355Z,0.60
2023-01-23T22:42:50.089Z,0.70
2023-01-23T22:47:51.830Z,0.60
2023-01-23T22:52:53.840Z,0.60
2023-01-23T22:57:55.639Z,0.50
2023-01-23T23:02:57.375Z,0.50
2023-01-23T23:07:59.101Z,0.40
2023-01-23T23:13:00.821Z,0.30
2023-01-23T23:18:02.587Z,0.30
2023-01-23T23:23:04.337Z,0.30
2023-01-23T23:28:06.242Z,0.30
2023-01-23T23:33:07.985Z,0.30
2023-01-23T23:38:10.593Z,0.20
2023-01-23T23:43:12.410Z,0.10
2023-01-23T23:48:14.148Z,-0.10
2023-01-23T23:53:16.257Z,-0.10
2023-01-23T23:58:18.300Z,-0.20
